Terminal Aerodrome Forecast
Issued by NWS

Home | Current Version | Previous Version | Text Only | Print | Product List | Glossary On
Versions: 1 2 3 4 5 6 7 8 9 10 11 12 13 14 15
528
FTPA31 PHFO 261527 AAA
TAFHLI
TAF AMD
PHLI 261527Z 2615/2712 36007KT P6SM VCSH SCT025
      TEMPO 2615/2618 3SM SHRA BR BKN015
     FM262000 12010KT P6SM SCT025
     FM270500 06005KT P6SM VCSH SCT025=

USA.gov is the U.S. government's official web portal to all federal, state and local government web resources and services.